createdAt,value
2018-12-03T00:04:46.672Z,-1.49
2018-12-03T00:09:50.120Z,-1.58
2018-12-03T00:14:53.308Z,-1.49
2018-12-03T00:19:56.486Z,-1.55
2018-12-03T00:24:59.721Z,-1.56
2018-12-03T00:30:03.584Z,-1.66
2018-12-03T00:35:08.619Z,-1.60
2018-12-03T00:40:12.105Z,-1.62
2018-12-03T00:45:15.323Z,-1.64
2018-12-03T00:50:18.593Z,-1.46
2018-12-03T00:55:21.876Z,-1.51
2018-12-03T01:00:25.107Z,-1.56
2018-12-03T01:05:28.440Z,-1.51
2018-12-03T01:10:31.849Z,-1.54
2018-12-03T01:15:35.172Z,-1.52
2018-12-03T01:20:38.398Z,-1.49
2018-12-03T01:25:41.608Z,-1.52
2018-12-03T01:30:44.875Z,-1.66
2018-12-03T01:35:48.065Z,-1.72
2018-12-03T01:40:51.382Z,-1.64
2018-12-03T01:45:54.623Z,-1.73
2018-12-03T01:50:57.839Z,-1.70
2018-12-03T01:56:01.082Z,-1.58
2018-12-03T02:01:04.469Z,-1.66
2018-12-03T02:06:07.789Z,-1.80
2018-12-03T02:11:11.152Z,-1.84
2018-12-03T02:16:14.362Z,-1.89
2018-12-03T02:21:17.586Z,-1.85
2018-12-03T02:26:20.721Z,-1.81
2018-12-03T02:31:23.920Z,-1.84
2018-12-03T02:36:27.185Z,-1.89
2018-12-03T02:41:30.499Z,-1.86
2018-12-03T02:46:33.722Z,-1.91
2018-12-03T02:51:36.844Z,-1.88
2018-12-03T02:56:40.106Z,-1.87
2018-12-03T03:01:43.166Z,-1.77
2018-12-03T03:06:46.284Z,-1.79
2018-12-03T03:11:49.595Z,-1.79
2018-12-03T03:16:52.928Z,-1.78
2018-12-03T03:21:56.165Z,-1.70
2018-12-03T03:26:59.465Z,-1.74
2018-12-03T03:32:02.639Z,-1.66
2018-12-03T03:37:05.846Z,-1.81
2018-12-03T03:42:09.307Z,-1.69
2018-12-03T03:47:12.392Z,-1.74
2018-12-03T03:52:15.700Z,-1.77
2018-12-03T03:57:19.034Z,-1.70
2018-12-03T04:02:22.393Z,-1.75
2018-12-03T04:07:25.511Z,-1.79
2018-12-03T04:12:28.703Z,-1.77
2018-12-03T04:17:31.902Z,-1.67
2018-12-03T04:22:35.056Z,-1.59
2018-12-03T04:27:38.196Z,-1.46
2018-12-03T04:32:41.410Z,-1.40
2018-12-03T04:37:44.826Z,-1.32
2018-12-03T04:42:48.338Z,-1.20
2018-12-03T04:47:51.714Z,-1.05
2018-12-03T04:52:54.928Z,-1.11
2018-12-03T04:57:58.150Z,-0.87
2018-12-03T05:03:01.386Z,-0.81
2018-12-03T05:08:04.627Z,-0.75
2018-12-03T05:13:08.938Z,-0.70
2018-12-03T05:18:12.084Z,-0.58
2018-12-03T05:23:15.349Z,-0.35
2018-12-03T05:28:18.690Z,-0.47
2018-12-03T05:33:21.861Z,-0.28
2018-12-03T05:38:25.007Z,-0.19
2018-12-03T05:43:28.278Z,-0.17
2018-12-03T05:48:31.565Z,0.00
2018-12-03T05:53:34.826Z,0.06
2018-12-03T05:58:38.098Z,0.19
2018-12-03T06:03:41.428Z,0.14
2018-12-03T06:08:44.540Z,0.21
2018-12-03T06:13:47.823Z,0.20
2018-12-03T06:18:51.087Z,0.40
2018-12-03T06:23:54.283Z,0.28
2018-12-03T06:28:57.628Z,0.47
2018-12-03T06:34:00.721Z,0.36
2018-12-03T06:39:06.056Z,0.70
2018-12-03T06:44:09.273Z,1.09
2018-12-03T06:49:12.516Z,1.20
2018-12-03T06:54:15.737Z,1.34
2018-12-03T06:59:18.939Z,1.29
2018-12-03T07:04:22.148Z,1.31
2018-12-03T07:09:25.456Z,1.28
2018-12-03T07:14:28.663Z,1.15
2018-12-03T07:19:31.953Z,1.38
2018-12-03T07:24:35.143Z,1.64
2018-12-03T07:29:38.277Z,1.82
2018-12-03T07:34:41.475Z,1.91
2018-12-03T07:39:44.764Z,2.14
2018-12-03T07:44:48.111Z,2.37
2018-12-03T07:49:51.222Z,2.52
2018-12-03T07:54:54.507Z,2.75
2018-12-03T07:59:57.732Z,3.13
2018-12-03T08:05:01.043Z,3.36
2018-12-03T08:10:06.435Z,3.44
2018-12-03T08:15:17.069Z,3.74
2018-12-03T08:20:23.822Z,3.88
2018-12-03T08:25:27.007Z,4.15
2018-12-03T08:30:30.277Z,4.45
2018-12-03T08:35:33.534Z,4.24
2018-12-03T08:40:36.773Z,4.32
2018-12-03T08:45:40.139Z,4.32
2018-12-03T08:50:45.542Z,4.34
2018-12-03T08:55:48.653Z,4.57
2018-12-03T09:00:51.808Z,4.72
2018-12-03T09:05:56.242Z,4.74
2018-12-03T09:10:58.394Z,4.66
2018-12-03T09:16:02.615Z,4.69
2018-12-03T09:21:11.649Z,4.93
2018-12-03T09:26:15.279Z,4.95
2018-12-03T09:31:21.411Z,5.05
2018-12-03T09:36:25.203Z,5.12
2018-12-03T09:41:28.308Z,5.32
2018-12-03T09:46:31.537Z,5.28
2018-12-03T09:51:36.083Z,5.35
2018-12-03T09:56:41.748Z,5.50
2018-12-03T10:01:46.364Z,5.55
2018-12-03T10:06:49.549Z,5.67
2018-12-03T10:11:57.521Z,5.74
2018-12-03T10:17:01.017Z,5.83
2018-12-03T10:22:04.478Z,6.00
2018-12-03T10:27:10.928Z,6.03
2018-12-03T10:32:17.726Z,6.05
2018-12-03T10:37:21.907Z,6.06
2018-12-03T10:42:25.067Z,6.04
2018-12-03T10:47:28.320Z,5.98
2018-12-03T10:52:31.429Z,6.10
2018-12-03T10:57:36.791Z,6.14
2018-12-03T11:02:45.753Z,6.23
2018-12-03T11:07:50.240Z,6.29
2018-12-03T11:12:53.395Z,6.29
2018-12-03T11:17:56.701Z,6.28
2018-12-03T11:22:59.886Z,6.28
2018-12-03T11:28:05.335Z,6.35
2018-12-03T11:33:08.548Z,6.40
2018-12-03T11:38:15.610Z,6.50
2018-12-03T11:43:18.739Z,6.63
2018-12-03T11:48:22.116Z,6.59
2018-12-03T11:53:25.294Z,6.66
2018-12-03T11:58:28.435Z,6.73
2018-12-03T12:03:31.681Z,6.75
2018-12-03T12:08:34.787Z,6.62
2018-12-03T12:13:38.750Z,6.76
2018-12-03T12:18:41.304Z,6.68
2018-12-03T12:24:19.050Z,6.68
2018-12-03T12:29:22.277Z,6.68
2018-12-03T12:34:26.727Z,6.56
2018-12-03T12:39:29.796Z,6.48
2018-12-03T12:44:32.972Z,6.46
2018-12-03T12:49:36.267Z,6.38
2018-12-03T12:54:39.540Z,6.39
2018-12-03T12:59:42.552Z,6.43
2018-12-03T13:04:45.667Z,6.41
2018-12-03T13:09:48.826Z,6.45
2018-12-03T13:14:51.929Z,6.42
2018-12-03T13:19:55.320Z,6.37
2018-12-03T13:24:58.465Z,6.37
2018-12-03T13:30:01.881Z,6.35
2018-12-03T13:35:06.344Z,6.30
2018-12-03T13:40:14.830Z,6.29
2018-12-03T13:45:19.887Z,6.22
2018-12-03T13:50:23.078Z,6.15
2018-12-03T13:55:26.314Z,6.02
2018-12-03T14:00:29.619Z,5.88
2018-12-03T14:05:37.217Z,5.78
2018-12-03T14:11:54.404Z,5.68
2018-12-03T14:17:07.015Z,5.51
2018-12-03T14:22:13.396Z,5.38
2018-12-03T14:27:16.576Z,5.20
2018-12-03T14:32:20.146Z,5.02
2018-12-03T14:37:23.276Z,4.89
2018-12-03T14:42:26.642Z,4.54
2018-12-03T14:47:29.889Z,4.28
2018-12-03T14:52:33.074Z,4.24
2018-12-03T14:57:36.233Z,4.07
2018-12-03T15:02:39.485Z,4.01
2018-12-03T15:07:42.747Z,3.85
2018-12-03T15:12:45.944Z,3.63
2018-12-03T15:17:49.118Z,3.34
2018-12-03T15:22:53.245Z,3.32
2018-12-03T15:27:56.505Z,2.96
2018-12-03T15:33:00.103Z,2.65
2018-12-03T15:38:03.267Z,2.60
2018-12-03T15:43:06.617Z,2.97
2018-12-03T15:48:09.803Z,2.72
2018-12-03T15:53:13.173Z,2.60
2018-12-03T15:58:16.397Z,2.39
2018-12-03T16:03:19.438Z,2.20
2018-12-03T16:08:22.769Z,2.08
2018-12-03T16:13:26.066Z,2.06
2018-12-03T16:18:29.283Z,2.19
2018-12-03T16:23:33.145Z,2.05
2018-12-03T16:28:36.448Z,1.99
2018-12-03T16:33:39.666Z,1.96
2018-12-03T16:38:42.759Z,1.93
2018-12-03T16:43:47.227Z,1.94
2018-12-03T16:48:50.535Z,1.84
2018-12-03T16:53:53.872Z,1.89
2018-12-03T16:58:58.054Z,1.77
2018-12-03T17:04:01.300Z,1.73
2018-12-03T17:09:06.859Z,1.63
2018-12-03T17:14:11.092Z,1.53
2018-12-03T17:19:14.237Z,1.42
2018-12-03T17:24:27.229Z,1.46
2018-12-03T17:29:30.387Z,1.44
2018-12-03T17:34:33.513Z,1.44
2018-12-03T17:39:36.621Z,1.46
2018-12-03T17:44:42.158Z,1.71
2018-12-03T17:49:45.351Z,1.81
2018-12-03T17:54:48.589Z,1.74
2018-12-03T17:59:52.682Z,1.52
2018-12-03T18:04:55.959Z,1.55
2018-12-03T18:09:59.042Z,1.46
2018-12-03T18:15:02.388Z,1.28
2018-12-03T18:20:07.701Z,1.26
2018-12-03T18:25:11.005Z,1.23
2018-12-03T18:30:14.061Z,1.28
2018-12-03T18:35:17.219Z,1.22
2018-12-03T18:40:20.300Z,1.24
2018-12-03T18:45:25.514Z,1.17
2018-12-03T18:50:34.478Z,1.16
2018-12-03T18:55:37.824Z,1.12
2018-12-03T19:00:42.079Z,1.11
2018-12-03T19:05:45.207Z,1.03
2018-12-03T19:10:49.242Z,0.99
2018-12-03T19:15:52.547Z,0.98
2018-12-03T19:20:55.721Z,1.13
2018-12-03T19:25:59.300Z,1.13
2018-12-03T19:31:02.636Z,1.22
2018-12-03T19:36:07.869Z,1.52
2018-12-03T19:41:11.073Z,1.82
2018-12-03T19:46:14.184Z,1.91
2018-12-03T19:51:17.229Z,2.05
2018-12-03T19:56:20.563Z,2.16
2018-12-03T20:01:23.753Z,2.05
2018-12-03T20:06:26.805Z,2.02
2018-12-03T20:11:29.959Z,1.78
2018-12-03T20:16:32.980Z,1.68
2018-12-03T20:21:36.140Z,1.67
2018-12-03T20:26:47.004Z,1.52
2018-12-03T20:34:03.157Z,1.50
2018-12-03T20:40:46.897Z,1.34
2018-12-03T20:46:04.123Z,1.32
2018-12-03T20:51:40.868Z,1.21
2018-12-03T20:56:44.041Z,1.05
2018-12-03T21:01:47.962Z,1.03
2018-12-03T21:06:51.286Z,0.99
2018-12-03T21:11:54.445Z,1.00
2018-12-03T21:16:57.789Z,0.98
2018-12-03T21:22:00.931Z,0.90
2018-12-03T21:27:04.134Z,0.86
2018-12-03T21:32:07.444Z,0.79
2018-12-03T21:37:10.716Z,0.83
2018-12-03T21:42:13.823Z,0.76
2018-12-03T21:47:16.990Z,0.69
2018-12-03T21:52:21.194Z,0.71
2018-12-03T21:57:24.365Z,0.67
2018-12-03T22:02:27.501Z,0.69
2018-12-03T22:07:30.629Z,0.67
2018-12-03T22:12:33.847Z,0.67
2018-12-03T22:17:36.901Z,0.60
2018-12-03T22:22:39.978Z,0.57
2018-12-03T22:27:43.195Z,0.58
2018-12-03T22:32:46.343Z,0.51
2018-12-03T22:37:49.622Z,0.59
2018-12-03T22:42:52.857Z,0.58
2018-12-03T22:47:55.977Z,0.63
2018-12-03T22:52:59.169Z,0.66
2018-12-03T22:58:02.339Z,0.55
2018-12-03T23:03:06.169Z,0.60
2018-12-03T23:08:09.362Z,0.64
2018-12-03T23:13:13.575Z,0.69
2018-12-03T23:18:16.775Z,0.80
2018-12-03T23:23:19.954Z,0.85
2018-12-03T23:28:23.308Z,0.83
2018-12-03T23:33:26.431Z,0.84
2018-12-03T23:38:29.572Z,0.92
2018-12-03T23:43:32.698Z,0.99
2018-12-03T23:48:35.827Z,1.05
2018-12-03T23:53:39.121Z,1.04
2018-12-03T23:58:42.388Z,1.03
